Brookings, OR

11:17 AM PDT on August 22, 2014 (GMT -0700)
Rogue Valley International-Medford | Change Station
CLOSE
Current Station
Airport
Location: Medford,
Elevation: 1329 ft
Nearby Weather Stations

Elev 1329 ft 42.38 °N, 122.87 °W | Updated 24 minutes ago

Clear
Clear
72 °F
Feels Like 72 °F
N
4
Wind Variable Wind from North

Today
High -- | Low -- °F
--% Chance of Precip.
Yesterday
High -- | Low -- °F
Precip. -- in
6:32 AM 8:06 PM
Waning Crescent, 7% visible
Pressure 29.98 in
Visibility 10.0 miles
Clouds Clear
Dew Point 50 °F
Humidity 46%
Rainfall 0.00 in
Snow Depth Not available.
UV 7 out of 12
Pollen 5.20 out of 12
Air Quality Not available.
Flu Activity Not available.
METAR KMFR 221753Z 36003KT 10SM CLR 22/10 A3001 RMK AO2 SLP151 T02220100 10222 20150 55002

More Conditions Fewer Conditions

Pressure 29.98 in
Visibility 10.0 miles
Clouds Clear
Dew Point 50 °F
Humidity 46%
Rainfall 0.00 in
Snow Depth Not available.
UV 7 out of 12
Pollen 5.20 out of 12
Air Quality Not available.
Flu Activity Not available.
METAR KMFR 221753Z 36003KT 10SM CLR 22/10 A3001 RMK AO2 SLP151 T02220100 10222 20150 55002

More Conditions Fewer Conditions

10-Day Weather Forecast

Almanac

Astronomy

Aug. 22, 2014 Rise Set
Actual Time 6:32 AM PDT 8:06 PM PDT
Civil Twilight 6:02 AM PDT 8:36 PM PDT
Nautical Twilight 5:26 AM PDT 9:11 PM PDT
Astronomical Twilight 4:48 AM PDT 9:49 PM PDT
Moon 3:58 AM PDT 6:19 PM PDT
Length of Visible Light 14h 33m
Length of Day
13h 34m
Tomorrow will be 2m 37s shorter.
Waning Crescent, 7% of the Moon is Illuminated
Today
Waning Crescent
Aug 25
New
Sep 2
First Quarter
Sep 8
Full
Sep 15
Last Quarter

Today's Extremes

State Highs State Lows

Community

WunderPhotos

Upload Photos

1,746,214 photos uploaded!

WunderBlogs® & News

Nearby

Snow Depth

Station Depth Elevation
Fish Lake 0 in 4665 ft
Billie Creek Divide 0 in 5300 ft
Fourmile Lake 1 in 6000 ft
Cold Springs Camp 0 in 6100 ft
Sevenmile Marsh 0 in 6200 ft

Earthquake Activity

City Distance Mag. Time & Date
Crescent City, California 104 miles 2.8 2:15 PM PDT
2014-08-15
Minimum magnitude displayed is 2.5.

Coastal Water Temperatures

Place Temperature
Port Orford, OR 48.9 °F
Crescent City, CA 57.9 °F
Charleston, OR 53.1 °F

Nearby Weather Stations